Share

O'Neill, NE

The O'Neill Municipal-Baker (KONL) Elev 2031 ft | 42.47 °N, 98.69 °W | Change Station

Current weather conditions updated 8 minutes ago

Scattered Clouds
Scattered Clouds
64 °F
Feels Like 64 °F
N
10
Wind Variable Wind from West
Gusts 16 mph
Sunrise 6:45 AM
Sunset 8:22 PM
Moon Waning Gibbous

Tomorrow is forecast to be Much Cooler than today.

Pressure 29.93 in
Visibility 10.0 miles
Clouds Scattered Clouds 11000 ft
Dew Point 48 °F
Humidity 56%
Rainfall 0.00 in
Snow Depth Not available.
UV 0 out of 16
Pollen 8.70 out of 12
Air Quality Not available.
Flu Activity Sporadic
METAR KONL 210315Z AUTO 28009G14KT 10SM VCTS SCT110 18/09 A2993 RMK AO2 T01760088

More Conditions Fewer Conditions

Pressure 29.93 in
Visibility 10.0 miles
Clouds Scattered Clouds 11000 ft
Dew Point 48 °F
Humidity 56%
Rainfall 0.00 in
Snow Depth Not available.
UV 0 out of 16
Pollen 8.70 out of 12
Air Quality Not available.
Flu Activity Sporadic
METAR KONL 210315Z AUTO 28009G14KT 10SM VCTS SCT110 18/09 A2993 RMK AO2 T01760088

More Conditions Fewer Conditions

Nowcast | as of 8:15 PM CDT on April 20, 2014

A line of showers and isolated thunderstorms will continue to move to the east over north central Nebraska through the evening. Hourly rainfall rates of a round 5 hundredths of an inch are possible.

×

10-Day Weather Forecast

Almanac

Astronomy

Apr. 20, 2014 Rise Set
Actual Time 6:45 AM CDT 8:22 PM CDT
Civil Twilight 6:15 AM CDT 8:51 PM CDT
Nautical Twilight 5:40 AM CDT 9:27 PM CDT
Astronomical Twilight 5:01 AM CDT 10:06 PM CDT
Moon 1:05 AM CDT (4/20) 11:05 AM CDT (4/20)
Length of Visible Light 14h 35m
Length of Day
13h 36m
Tomorrow will be 2m 40s longer.
Waning Gibbous, 63% of the Moon is Illuminated
Today
Waning Gibbous
Apr 22
Last Quarter
Apr 29
New
May 6
First Quarter
May 14
Full

Today's Extremes

State Highs State Lows

Community

  • Sun Pillar and Geese
    Sun Pillar and Geese
  • Showers on the Way
    Showers on the Way
  • Easter Morning Fog
    Easter Morning Fog
  • Easter Dance
    Easter Dance
  • spring skiing mount Baker WA
    spring skiing mount Baker WA

WunderPhotos

Upload Photos

1,703,540 photos uploaded!

WunderBlogs® & News

Nearby

Snow Depth

Station Depth Elevation
No new snow has been reported.

Coastal Water Temperatures

Place Temperature
No Stations Reporting

Earthquake Activity

City Distance Mag. Time & Date
No recent earthquake activity has been reported nearby.
Minimum magnitude displayed is 2.5.

Nearby Weather Stations

Station Location Temp. Dew Point Humidity Wind Precip. Elev Updated Type
50196 US Highway 20, Inman, NE 65.6 °F 52 °F 62% South  at  7.0 mph 0.00 in / hr 1903 ft 10:23 PM CDT Rapid Fire
105 South Victoria Street, Chambers, NE 64.4 °F 48 °F 55% SSE  at  1.1 mph 0.00 in / hr 2119 ft 10:23 PM CDT Rapid Fire

Show More Stations Show Fewer Stations

What do you think?

We're not finished. Please let us know what you like, what you don't like, and what you are still missing.